Aeroporto :
LOGIN :

Iscrizione | Disclaimer

   EN    FR    IT 

 










Sommario :    VFR   VFR Marginale   IFR   IFR Intensivo   IFR Molto Intensivo
Visibilità : 
Base nubi : 
>= 8 km
>= 3000ft
5 / 8 km
1000 / 3000 ft
1500m / 5 km
500 / 1000 ft
800 / 1500m
200 / 500 ft
< 800m
< 200 ft
Simboli :   Temporali  Nebbia  Neve Forte  Precipitazioni Forti  Vento > 20 kt
SIGMETs :   Varie  Temporali  Ghiacco  Turbolenza  Onda orograficha  Ceneri Vulcaniche






- Altitudine del aeroporto : 197 ft
- Codice IATA : XOG


LFMO - Orange

ULTIMO METAR :
  • 221930Z AUTO VRB02KT CAVOK 07/04 Q1033 NOSIG

METARs OBSOLETI :
  • 221900Z AUTO 00000KT CAVOK 08/04 Q1033 NOSIG
  • 221830Z AUTO 00000KT CAVOK 10/04 Q1033 NOSIG
  • 221800Z AUTO 13003KT CAVOK 12/05 Q1032 NOSIG
  • 221730Z AUTO 07003KT CAVOK 13/05 Q1032 NOSIG
  • 221700Z AUTO 07002KT CAVOK 15/05 Q1032 NOSIG

TAF TAF LFMO
Valido dal 22 a 15 ore il 23 a 15 ore UTC


221400Z 2215/2315 VRB02KT CAVOK
PROB30 2300/2308 3000 BR
PROB40
TEMPO 2303/2307 0800 FG



MetMap, La meteo Aeronautica in un colpo d'occhio ! - Copyright ORBIFLY Dicembre 2007 - Disclaimer

ORBIFLY MET'MAP TEAM :

Programmazione e sviluppo : Alexandra Zaïnal
Concezione : Baudouin d'Aumeries
Aiuto per la programmazione : Marc-Olivier Méhu
Supporto tecnico e logistico : Manuel Goepfert
Aiuto per la traduzione : Arnaldo La Scala

Contatto : metmap@orbifly.com




FONTI E CREDITI :

   NOAA